createdAt,value
2023-05-17T00:01:18.317Z,55.50
2023-05-17T00:03:48.843Z,49.43
2023-05-17T00:06:17.952Z,47.53
2023-05-17T00:08:47.862Z,58.07
2023-05-17T00:11:17.377Z,52.70
2023-05-17T00:13:46.446Z,46.07
2023-05-17T00:16:15.420Z,58.93
2023-05-17T00:18:44.552Z,41.70
2023-05-17T00:21:15.058Z,51.73
2023-05-17T00:23:44.070Z,44.70
2023-05-17T00:26:13.973Z,48.53
2023-05-17T00:28:43.398Z,44.60
2023-05-17T00:31:12.216Z,45.60
2023-05-17T00:33:41.147Z,36.83
2023-05-17T00:36:10.539Z,38.87
2023-05-17T00:38:41.296Z,38.43
2023-05-17T00:41:10.680Z,36.63
2023-05-17T00:43:39.630Z,37.17
2023-05-17T00:46:08.534Z,35.57
2023-05-17T00:48:38.201Z,38.97
2023-05-17T00:51:07.730Z,47.23
2023-05-17T00:53:37.426Z,40.50
2023-05-17T00:56:08.772Z,44.80
2023-05-17T00:58:40.848Z,56.07
2023-05-17T01:01:10.086Z,47.20
2023-05-17T01:03:39.228Z,51.70
2023-05-17T01:06:08.486Z,50.60
2023-05-17T01:08:37.642Z,60.10
2023-05-17T01:11:21.596Z,55.77
2023-05-17T01:14:01.470Z,55.57
2023-05-17T01:16:37.100Z,50.23
2023-05-17T01:19:15.906Z,51.73
2023-05-17T01:21:58.978Z,55.07
2023-05-17T01:24:31.648Z,51.80
2023-05-17T01:27:03.761Z,51.17
2023-05-17T01:29:34.675Z,57.80
2023-05-17T01:32:06.515Z,67.53
2023-05-17T01:34:37.299Z,53.73
2023-05-17T01:37:06.661Z,55.83
2023-05-17T01:39:36.406Z,55.57
2023-05-17T01:42:17.049Z,57.03
2023-05-17T01:44:51.722Z,59.13
2023-05-17T01:47:36.221Z,71.20
2023-05-17T01:50:07.741Z,55.53
2023-05-17T01:52:47.028Z,60.57
2023-05-17T01:55:24.864Z,67.47
2023-05-17T01:57:58.246Z,68.87
2023-05-17T02:00:28.876Z,61.67
2023-05-17T02:02:59.847Z,69.00
2023-05-17T02:05:29.363Z,64.87
2023-05-17T02:07:58.567Z,74.63
2023-05-17T02:10:27.659Z,87.20
2023-05-17T02:13:00.134Z,84.13
2023-05-17T02:15:29.833Z,89.00
2023-05-17T02:17:59.185Z,81.03
2023-05-17T02:20:28.297Z,65.23
2023-05-17T02:22:57.371Z,71.53
2023-05-17T02:25:28.604Z,66.23
2023-05-17T02:27:59.173Z,54.53
2023-05-17T02:30:28.244Z,70.13
2023-05-17T02:32:57.394Z,58.63
2023-05-17T02:35:26.594Z,71.63
2023-05-17T02:37:55.653Z,102.87
2023-05-17T02:40:24.689Z,115.23
2023-05-17T02:42:53.705Z,94.20
2023-05-17T02:45:24.206Z,75.07
2023-05-17T02:47:53.297Z,64.90
2023-05-17T02:50:22.321Z,74.30
2023-05-17T02:52:51.278Z,59.43
2023-05-17T02:55:20.337Z,55.07
2023-05-17T02:57:49.258Z,58.03
2023-05-17T03:00:19.163Z,57.77
2023-05-17T03:02:49.829Z,66.33
2023-05-17T03:05:19.176Z,53.80
2023-05-17T03:07:53.496Z,57.17
2023-05-17T03:10:22.557Z,77.67
2023-05-17T03:12:51.660Z,87.13
2023-05-17T03:15:23.652Z,100.50
2023-05-17T03:17:54.245Z,74.20
2023-05-17T03:20:23.658Z,55.57
2023-05-17T03:22:52.979Z,62.23
2023-05-17T03:25:22.804Z,167.87
2023-05-17T03:27:52.461Z,207.17
2023-05-17T03:30:21.913Z,161.60
2023-05-17T03:32:51.344Z,259.33
2023-05-17T03:35:22.065Z,200.67
2023-05-17T03:37:54.807Z,86.63
2023-05-17T03:40:24.994Z,70.93
2023-05-17T03:42:54.416Z,70.77
2023-05-17T03:45:24.019Z,63.70
2023-05-17T03:47:53.062Z,65.67
2023-05-17T03:50:42.712Z,52.60
2023-05-17T03:53:12.468Z,61.13
2023-05-17T03:55:41.825Z,57.10
2023-05-17T03:58:10.885Z,63.07
2023-05-17T04:00:42.072Z,143.23
2023-05-17T04:03:30.181Z,104.40
2023-05-17T04:06:09.143Z,174.37
2023-05-17T04:08:40.273Z,199.83
2023-05-17T04:11:28.036Z,141.07
2023-05-17T04:13:58.419Z,119.00
2023-05-17T04:16:27.429Z,90.27
2023-05-17T04:18:57.298Z,72.50
2023-05-17T04:21:27.861Z,79.17
2023-05-17T04:23:58.411Z,76.23
2023-05-17T04:26:28.588Z,97.70
2023-05-17T04:28:57.865Z,118.43
2023-05-17T04:31:26.822Z,107.67
2023-05-17T04:33:56.661Z,101.30
2023-05-17T04:36:30.841Z,103.83
2023-05-17T04:39:00.326Z,130.17
2023-05-17T04:41:31.700Z,122.03
2023-05-17T04:44:00.938Z,114.37
2023-05-17T04:46:35.254Z,98.57
2023-05-17T04:49:04.724Z,93.97
2023-05-17T04:51:35.517Z,95.80
2023-05-17T04:54:07.235Z,89.17
2023-05-17T04:56:37.351Z,99.53
2023-05-17T04:59:10.366Z,115.93
2023-05-17T05:01:39.319Z,118.93
2023-05-17T05:04:08.299Z,116.40
2023-05-17T05:06:44.288Z,105.90
2023-05-17T05:09:13.715Z,105.37
2023-05-17T05:11:42.938Z,95.73
2023-05-17T05:14:11.956Z,78.83
2023-05-17T05:16:41.014Z,70.03
2023-05-17T05:19:10.671Z,72.17
2023-05-17T05:21:46.468Z,66.00
2023-05-17T05:24:16.930Z,93.73
2023-05-17T05:26:46.731Z,96.43
2023-05-17T05:29:16.822Z,111.23
2023-05-17T05:31:46.633Z,92.57
2023-05-17T05:34:16.586Z,77.67
2023-05-17T05:36:47.546Z,74.00
2023-05-17T05:39:18.270Z,107.17
2023-05-17T05:41:47.730Z,72.23
2023-05-17T05:44:16.804Z,59.13
2023-05-17T05:46:45.871Z,51.17
2023-05-17T05:49:15.750Z,52.90
2023-05-17T05:51:46.850Z,55.83
2023-05-17T05:54:34.583Z,58.20
2023-05-17T05:57:03.979Z,53.57
2023-05-17T05:59:33.127Z,51.20
2023-05-17T06:02:02.938Z,49.50
2023-05-17T06:04:44.013Z,41.90
2023-05-17T06:07:16.409Z,50.50
2023-05-17T06:09:45.435Z,51.57
2023-05-17T06:12:14.742Z,57.90
2023-05-17T06:14:43.833Z,51.27
2023-05-17T06:17:12.769Z,50.07
2023-05-17T06:19:41.723Z,56.50
2023-05-17T06:22:10.902Z,46.60
2023-05-17T06:24:41.337Z,46.67
2023-05-17T06:27:10.358Z,40.37
2023-05-17T06:29:39.410Z,48.20
2023-05-17T06:32:08.967Z,48.27
2023-05-17T06:34:37.958Z,45.37
2023-05-17T06:37:07.107Z,83.97
2023-05-17T06:39:36.230Z,61.13
2023-05-17T06:42:07.433Z,56.13
2023-05-17T06:44:45.360Z,48.57
2023-05-17T06:47:14.411Z,49.13
2023-05-17T06:49:43.332Z,54.50
2023-05-17T06:52:12.306Z,53.73
2023-05-17T06:54:41.262Z,52.23
2023-05-17T06:57:11.959Z,44.03
2023-05-17T06:59:41.050Z,61.83
2023-05-17T07:02:10.038Z,59.57
2023-05-17T07:04:38.946Z,47.03
2023-05-17T07:07:08.021Z,44.00
2023-05-17T07:09:37.008Z,49.57
2023-05-17T07:12:07.969Z,62.30
2023-05-17T07:14:38.392Z,54.57
2023-05-17T07:17:07.455Z,55.40
2023-05-17T07:19:36.485Z,67.27
2023-05-17T07:22:05.678Z,61.60
2023-05-17T07:24:36.035Z,51.90
2023-05-17T07:27:05.358Z,47.97
2023-05-17T07:29:34.343Z,34.73
2023-05-17T07:32:05.100Z,33.13
2023-05-17T07:34:34.253Z,35.80
2023-05-17T07:37:03.528Z,37.33
2023-05-17T07:39:32.532Z,35.90
2023-05-17T07:42:02.379Z,36.87
2023-05-17T07:44:51.609Z,36.53
2023-05-17T07:47:22.031Z,40.63
2023-05-17T07:49:51.324Z,40.43
2023-05-17T07:52:20.251Z,38.93
2023-05-17T07:54:49.206Z,37.27
2023-05-17T07:57:18.867Z,37.13
2023-05-17T07:59:47.856Z,36.37
2023-05-17T08:02:16.891Z,35.27
2023-05-17T08:04:49.710Z,129.83
2023-05-17T08:07:19.448Z,84.63
2023-05-17T08:09:48.422Z,56.57
2023-05-17T08:12:17.300Z,52.17
2023-05-17T08:14:46.412Z,140.07
2023-05-17T08:17:15.353Z,148.03
2023-05-17T08:19:44.311Z,178.40
2023-05-17T08:22:14.908Z,165.73
2023-05-17T08:24:45.166Z,110.57
2023-05-17T08:27:14.322Z,67.43
2023-05-17T08:29:43.196Z,41.47
2023-05-17T08:32:12.189Z,46.20
2023-05-17T08:34:41.189Z,57.60
2023-05-17T08:37:10.234Z,109.73
2023-05-17T08:39:40.862Z,100.87
2023-05-17T08:42:09.991Z,77.43
2023-05-17T08:44:39.697Z,36.60
2023-05-17T08:47:11.844Z,32.00
2023-05-17T08:49:42.354Z,86.87
2023-05-17T08:52:12.594Z,75.17
2023-05-17T08:54:47.740Z,59.30
2023-05-17T08:57:22.655Z,32.97
2023-05-17T08:59:53.584Z,37.17
2023-05-17T09:02:23.758Z,22.73
2023-05-17T09:04:55.808Z,15.57
2023-05-17T09:07:25.344Z,20.57
2023-05-17T09:09:56.142Z,19.00
2023-05-17T09:12:25.818Z,19.37
2023-05-17T09:14:54.961Z,17.97
2023-05-17T09:17:24.067Z,18.57
2023-05-17T09:19:53.241Z,21.50
2023-05-17T09:22:22.481Z,23.83
2023-05-17T09:24:51.694Z,21.97
2023-05-17T09:27:21.968Z,21.53
2023-05-17T09:29:50.993Z,21.20
2023-05-17T09:32:21.205Z,21.47
2023-05-17T09:34:51.377Z,27.87
2023-05-17T09:37:21.510Z,25.03
2023-05-17T09:39:50.804Z,23.70
2023-05-17T09:42:19.796Z,22.27
2023-05-17T09:44:53.629Z,21.93
2023-05-17T09:47:26.675Z,21.67
2023-05-17T09:49:57.558Z,20.37
2023-05-17T09:52:27.192Z,22.60
2023-05-17T09:54:57.867Z,16.60
2023-05-17T09:57:28.316Z,18.27
2023-05-17T09:59:59.760Z,20.43
2023-05-17T10:02:30.410Z,18.63
2023-05-17T10:04:59.813Z,14.50
2023-05-17T10:07:29.390Z,17.43
2023-05-17T10:09:59.102Z,17.57
2023-05-17T10:12:30.891Z,15.13
2023-05-17T10:15:02.907Z,23.90
2023-05-17T10:17:32.648Z,24.70
2023-05-17T10:20:02.449Z,19.57
2023-05-17T10:22:51.889Z,20.13
2023-05-17T10:25:21.380Z,15.40
2023-05-17T10:28:09.350Z,15.00
2023-05-17T10:30:40.151Z,79.00
2023-05-17T10:33:09.644Z,22.13
2023-05-17T10:35:41.208Z,14.30
2023-05-17T10:38:10.262Z,15.10
2023-05-17T10:40:40.402Z,16.90
2023-05-17T10:43:11.519Z,17.77
2023-05-17T10:45:44.034Z,28.57
2023-05-17T10:48:14.123Z,17.20
2023-05-17T10:50:54.434Z,17.93
2023-05-17T10:53:33.747Z,21.10
2023-05-17T10:56:06.377Z,20.00
2023-05-17T10:58:37.797Z,17.93
2023-05-17T11:01:10.342Z,22.93
2023-05-17T11:03:40.959Z,23.50
2023-05-17T11:06:24.751Z,23.47
2023-05-17T11:09:18.786Z,25.77
2023-05-17T11:12:08.844Z,43.97
2023-05-17T11:14:55.672Z,53.83
2023-05-17T11:17:27.894Z,46.37
2023-05-17T11:20:06.571Z,42.30
2023-05-17T11:22:40.613Z,35.53
2023-05-17T11:25:12.183Z,18.03
2023-05-17T11:27:46.359Z,17.33
2023-05-17T11:30:20.825Z,32.30
2023-05-17T11:32:52.460Z,40.97
2023-05-17T11:35:25.663Z,21.97
2023-05-17T11:38:18.286Z,31.17
2023-05-17T11:40:48.469Z,24.00
2023-05-17T11:43:18.840Z,21.30
2023-05-17T11:45:52.934Z,13.00
2023-05-17T11:48:26.671Z,44.87
2023-05-17T11:50:58.911Z,21.60
2023-05-17T11:53:32.310Z,32.47
2023-05-17T11:56:05.551Z,14.47
2023-05-17T11:58:36.246Z,28.93
2023-05-17T12:01:06.205Z,33.33
2023-05-17T12:03:37.292Z,32.07
2023-05-17T12:06:09.825Z,23.73
2023-05-17T12:08:40.364Z,31.73
2023-05-17T12:11:12.585Z,27.57
2023-05-17T12:13:42.983Z,29.40
2023-05-17T12:16:17.590Z,38.23
2023-05-17T12:18:51.719Z,75.00
2023-05-17T12:21:21.682Z,57.97
2023-05-17T12:23:53.958Z,42.60
2023-05-17T12:26:24.164Z,31.53
2023-05-17T12:28:57.833Z,33.67
2023-05-17T12:31:30.931Z,34.20
2023-05-17T12:34:02.873Z,30.47
2023-05-17T12:36:33.699Z,40.97
2023-05-17T12:39:04.804Z,46.57
2023-05-17T12:41:34.520Z,22.80
2023-05-17T12:44:14.590Z,16.13
2023-05-17T12:46:45.061Z,31.33
2023-05-17T12:49:15.600Z,37.07
2023-05-17T12:51:46.447Z,33.37
2023-05-17T12:54:27.345Z,47.87
2023-05-17T12:56:57.824Z,51.47
2023-05-17T12:59:29.204Z,26.40
2023-05-17T13:02:00.985Z,25.17
2023-05-17T13:04:38.014Z,30.90
2023-05-17T13:07:16.902Z,33.60
2023-05-17T13:09:49.657Z,34.10
2023-05-17T13:12:22.575Z,25.93
2023-05-17T13:14:53.519Z,14.97
2023-05-17T13:17:28.388Z,17.47
2023-05-17T13:19:58.917Z,11.70
2023-05-17T13:22:28.181Z,16.30
2023-05-17T13:24:57.226Z,16.27
2023-05-17T13:27:26.113Z,20.13
2023-05-17T13:29:55.094Z,17.47
2023-05-17T13:32:24.092Z,10.30
2023-05-17T13:34:53.135Z,14.10
2023-05-17T13:37:23.816Z,9.33
2023-05-17T13:39:54.989Z,11.27
2023-05-17T13:42:42.614Z,12.73
2023-05-17T13:45:13.825Z,17.13
2023-05-17T13:47:43.124Z,20.83
2023-05-17T13:50:18.167Z,17.57
2023-05-17T13:52:48.553Z,32.70
2023-05-17T13:55:17.787Z,28.00
2023-05-17T13:57:47.283Z,17.30
2023-05-17T14:00:17.323Z,15.47
2023-05-17T14:03:05.244Z,25.80
2023-05-17T14:05:36.861Z,11.20
2023-05-17T14:08:25.861Z,19.50
2023-05-17T14:10:55.154Z,10.63
2023-05-17T14:13:24.729Z,15.37
2023-05-17T14:15:53.705Z,19.10
2023-05-17T14:18:23.046Z,19.67
2023-05-17T14:20:53.380Z,30.23
2023-05-17T14:23:22.451Z,25.63
2023-05-17T14:25:52.876Z,30.57
2023-05-17T14:28:21.993Z,18.10
2023-05-17T14:30:52.107Z,38.13
2023-05-17T14:33:21.343Z,23.03
2023-05-17T14:35:50.357Z,21.57
2023-05-17T14:38:20.688Z,30.13
2023-05-17T14:40:49.850Z,22.17
2023-05-17T14:43:21.296Z,24.53
2023-05-17T14:45:50.343Z,35.53
2023-05-17T14:48:19.498Z,26.93
2023-05-17T14:50:48.534Z,30.57
2023-05-17T14:53:17.548Z,13.30
2023-05-17T14:55:46.770Z,28.23
2023-05-17T14:58:15.789Z,24.33
2023-05-17T15:00:50.646Z,20.83
2023-05-17T15:03:22.277Z,23.07
2023-05-17T15:05:56.686Z,23.07
2023-05-17T15:08:26.080Z,39.77
2023-05-17T15:10:55.580Z,33.30
2023-05-17T15:13:24.928Z,75.00
2023-05-17T15:15:56.731Z,38.53
2023-05-17T15:18:29.671Z,48.53
2023-05-17T15:20:59.114Z,69.07
2023-05-17T15:23:28.018Z,29.40
2023-05-17T15:25:57.120Z,52.60
2023-05-17T15:28:29.189Z,65.67
2023-05-17T15:31:03.839Z,54.37
2023-05-17T15:33:33.537Z,66.27
2023-05-17T15:36:02.649Z,46.93
2023-05-17T15:38:31.749Z,43.17
2023-05-17T15:41:05.296Z,35.13
2023-05-17T15:43:36.307Z,37.30
2023-05-17T15:46:07.431Z,32.13
2023-05-17T15:48:37.366Z,37.43
2023-05-17T15:51:08.260Z,26.27
2023-05-17T15:53:37.306Z,24.03
2023-05-17T15:56:06.749Z,19.57
2023-05-17T15:58:35.865Z,40.97
2023-05-17T16:01:07.460Z,24.27
2023-05-17T16:03:36.676Z,31.33
2023-05-17T16:06:06.654Z,21.67
2023-05-17T16:08:35.568Z,12.70
2023-05-17T16:11:04.955Z,12.07
2023-05-17T16:13:33.909Z,21.23
2023-05-17T16:16:03.196Z,9.83
2023-05-17T16:18:33.822Z,36.97
2023-05-17T16:21:05.511Z,26.00
2023-05-17T16:23:35.006Z,14.50
2023-05-17T16:26:03.925Z,17.23
2023-05-17T16:28:34.825Z,15.53
2023-05-17T16:31:06.074Z,13.83
2023-05-17T16:33:36.722Z,15.80
2023-05-17T16:36:06.209Z,17.23
2023-05-17T16:38:36.643Z,21.27
2023-05-17T16:41:05.661Z,22.30
2023-05-17T16:43:35.248Z,38.00
2023-05-17T16:46:04.596Z,29.77
2023-05-17T16:48:33.717Z,24.10
2023-05-17T16:51:04.639Z,11.23
2023-05-17T16:53:35.477Z,20.33
2023-05-17T16:56:23.322Z,19.20
2023-05-17T16:58:52.607Z,26.93
2023-05-17T17:01:21.843Z,20.57
2023-05-17T17:03:50.996Z,22.50
2023-05-17T17:06:21.570Z,30.33
2023-05-17T17:08:50.600Z,31.23
2023-05-17T17:11:22.049Z,30.67
2023-05-17T17:13:51.803Z,17.20
2023-05-17T17:16:21.592Z,27.00
2023-05-17T17:18:50.777Z,31.17
2023-05-17T17:21:21.220Z,38.93
2023-05-17T17:23:50.554Z,32.83
2023-05-17T17:26:19.879Z,21.47
2023-05-17T17:28:48.984Z,23.73
2023-05-17T17:31:18.891Z,24.37
2023-05-17T17:33:48.033Z,31.40
2023-05-17T17:36:16.949Z,29.40
2023-05-17T17:38:47.380Z,30.70
2023-05-17T17:41:16.513Z,25.33
2023-05-17T17:43:47.692Z,22.40
2023-05-17T17:46:16.962Z,22.77
2023-05-17T17:48:45.934Z,32.07
2023-05-17T17:51:14.872Z,22.87
2023-05-17T17:53:43.787Z,15.23
2023-05-17T17:56:14.240Z,27.77
2023-05-17T17:59:03.972Z,35.60
2023-05-17T18:01:38.855Z,29.97
2023-05-17T18:04:08.362Z,20.67
2023-05-17T18:06:37.387Z,25.50
2023-05-17T18:09:06.421Z,22.20
2023-05-17T18:11:37.085Z,33.23
2023-05-17T18:14:06.524Z,64.97
2023-05-17T18:16:35.571Z,45.37
2023-05-17T18:19:04.704Z,38.63
2023-05-17T18:21:33.841Z,35.63
2023-05-17T18:24:03.390Z,30.70
2023-05-17T18:26:32.947Z,30.90
2023-05-17T18:29:04.311Z,29.57
2023-05-17T18:31:33.448Z,28.00
2023-05-17T18:34:02.415Z,35.33
2023-05-17T18:36:31.528Z,24.17
2023-05-17T18:39:01.157Z,27.63
2023-05-17T18:41:30.144Z,29.23
2023-05-17T18:44:02.069Z,28.23
2023-05-17T18:46:51.196Z,28.27
2023-05-17T18:49:21.526Z,32.07
2023-05-17T18:51:51.013Z,18.57
2023-05-17T18:54:38.915Z,17.27
2023-05-17T18:57:11.587Z,17.57
2023-05-17T18:59:40.889Z,16.80
2023-05-17T19:02:29.813Z,19.57
2023-05-17T19:04:59.025Z,22.40
2023-05-17T19:07:28.699Z,29.67
2023-05-17T19:09:57.789Z,28.97
2023-05-17T19:12:26.860Z,31.53
2023-05-17T19:14:55.926Z,31.70
2023-05-17T19:17:25.188Z,29.43
2023-05-17T19:19:57.244Z,34.37
2023-05-17T19:22:44.940Z,34.13
2023-05-17T19:25:15.970Z,28.73
2023-05-17T19:27:45.485Z,37.37
2023-05-17T19:30:18.462Z,29.13
2023-05-17T19:32:47.632Z,38.53
2023-05-17T19:35:18.117Z,30.60
2023-05-17T19:37:47.014Z,27.27
2023-05-17T19:40:19.043Z,35.57
2023-05-17T19:42:48.605Z,28.10
2023-05-17T19:45:18.354Z,31.43
2023-05-17T19:47:47.317Z,29.40
2023-05-17T19:50:17.892Z,28.43
2023-05-17T19:52:47.217Z,34.63
2023-05-17T19:55:22.267Z,38.10
2023-05-17T19:57:51.479Z,39.63
2023-05-17T20:00:21.178Z,39.70
2023-05-17T20:02:50.162Z,42.27
2023-05-17T20:05:20.926Z,45.13
2023-05-17T20:07:50.141Z,47.80
2023-05-17T20:10:19.059Z,52.20
2023-05-17T20:12:48.456Z,53.70
2023-05-17T20:15:17.764Z,56.33
2023-05-17T20:17:46.920Z,55.27
2023-05-17T20:20:16.674Z,58.07
2023-05-17T20:22:47.672Z,61.73
2023-05-17T20:25:16.804Z,62.63
2023-05-17T20:27:46.156Z,64.63
2023-05-17T20:30:15.365Z,53.00
2023-05-17T20:32:44.391Z,49.37
2023-05-17T20:35:13.576Z,55.37
2023-05-17T20:37:42.649Z,50.67
2023-05-17T20:40:13.883Z,57.07
2023-05-17T20:42:43.254Z,54.27
2023-05-17T20:45:14.662Z,49.30
2023-05-17T20:47:44.108Z,53.07
2023-05-17T20:50:14.387Z,51.50
2023-05-17T20:52:43.427Z,57.10
2023-05-17T20:55:14.106Z,61.90
2023-05-17T20:57:43.404Z,61.00
2023-05-17T21:00:17.085Z,65.00
2023-05-17T21:02:46.850Z,64.50
2023-05-17T21:05:16.094Z,79.77
2023-05-17T21:07:46.917Z,76.53
2023-05-17T21:10:18.133Z,78.67
2023-05-17T21:12:47.087Z,69.43
2023-05-17T21:15:19.705Z,61.30
2023-05-17T21:17:48.815Z,80.37
2023-05-17T21:20:18.072Z,62.07
2023-05-17T21:22:47.097Z,59.30
2023-05-17T21:25:17.578Z,55.97
2023-05-17T21:27:46.584Z,63.53
2023-05-17T21:30:15.582Z,68.87
2023-05-17T21:32:44.625Z,60.70
2023-05-17T21:35:13.778Z,46.83
2023-05-17T21:37:42.706Z,48.47
2023-05-17T21:40:12.608Z,56.83
2023-05-17T21:42:43.512Z,66.50
2023-05-17T21:45:13.233Z,115.13
2023-05-17T21:47:42.418Z,115.30
2023-05-17T21:50:12.776Z,107.27
2023-05-17T21:52:42.159Z,92.83
2023-05-17T21:55:11.442Z,86.77
2023-05-17T21:57:49.384Z,80.33
2023-05-17T22:00:20.617Z,81.73
2023-05-17T22:02:49.923Z,79.87
2023-05-17T22:05:19.185Z,75.10
2023-05-17T22:07:48.819Z,83.40
2023-05-17T22:10:18.231Z,85.07
2023-05-17T22:12:54.369Z,81.70
2023-05-17T22:15:23.848Z,90.60
2023-05-17T22:17:53.190Z,81.00
2023-05-17T22:20:24.110Z,73.87
2023-05-17T22:22:53.156Z,64.07
2023-05-17T22:25:22.314Z,73.80
2023-05-17T22:27:52.824Z,60.23
2023-05-17T22:30:21.922Z,54.90
2023-05-17T22:32:52.157Z,50.80
2023-05-17T22:35:21.382Z,49.03
2023-05-17T22:37:50.339Z,50.73
2023-05-17T22:40:19.594Z,50.00
2023-05-17T22:42:48.686Z,52.53
2023-05-17T22:45:19.220Z,51.97
2023-05-17T22:47:48.322Z,51.20
2023-05-17T22:50:20.867Z,56.63
2023-05-17T22:52:50.924Z,57.37
2023-05-17T22:55:20.093Z,50.13
2023-05-17T22:57:49.036Z,57.50
2023-05-17T23:00:20.781Z,56.83
2023-05-17T23:02:49.921Z,64.40
2023-05-17T23:05:18.884Z,64.80
2023-05-17T23:07:48.108Z,72.07
2023-05-17T23:10:17.241Z,72.97
2023-05-17T23:12:46.245Z,70.20
2023-05-17T23:15:16.719Z,67.57
2023-05-17T23:17:47.567Z,69.97
2023-05-17T23:20:16.827Z,73.30
2023-05-17T23:22:47.820Z,81.23
2023-05-17T23:25:17.176Z,72.07
2023-05-17T23:27:46.073Z,70.87
2023-05-17T23:30:15.435Z,68.90
2023-05-17T23:32:46.945Z,74.67
2023-05-17T23:35:17.550Z,75.33
2023-05-17T23:37:46.602Z,80.87
2023-05-17T23:40:16.827Z,83.10
2023-05-17T23:42:46.341Z,78.50
2023-05-17T23:45:15.357Z,77.67
2023-05-17T23:47:44.646Z,77.00
2023-05-17T23:50:13.735Z,73.50
2023-05-17T23:52:44.169Z,70.03
2023-05-17T23:55:13.168Z,67.40
2023-05-17T23:57:42.656Z,109.93
